sensor_id;sensor_type;location;lat;lon;timestamp;P1;durP1;ratioP1;P2;durP2;ratioP2
68284;SDS011;55114;52.052;5.238;2022-09-06T00:01:56;6.05;;;3.33;;
68284;SDS011;55114;52.052;5.238;2022-09-06T00:04:23;5.10;;;3.38;;
68284;SDS011;55114;52.052;5.238;2022-09-06T00:06:50;4.87;;;3.33;;
68284;SDS011;55114;52.052;5.238;2022-09-06T00:09:18;6.32;;;3.30;;
68284;SDS011;55114;52.052;5.238;2022-09-06T00:11:45;6.43;;;3.47;;
68284;SDS011;55114;52.052;5.238;2022-09-06T00:14:12;5.40;;;3.35;;
68284;SDS011;55114;52.052;5.238;2022-09-06T00:16:39;6.00;;;3.80;;
68284;SDS011;55114;52.052;5.238;2022-09-06T00:19:06;5.80;;;3.63;;
68284;SDS011;55114;52.052;5.238;2022-09-06T00:21:33;6.43;;;3.60;;
68284;SDS011;55114;52.052;5.238;2022-09-06T00:24:00;5.40;;;3.63;;
68284;SDS011;55114;52.052;5.238;2022-09-06T00:26:28;6.07;;;3.20;;
68284;SDS011;55114;52.052;5.238;2022-09-06T00:28:56;6.95;;;3.63;;
68284;SDS011;55114;52.052;5.238;2022-09-06T00:31:24;6.30;;;3.67;;
68284;SDS011;55114;52.052;5.238;2022-09-06T00:33:52;5.53;;;3.60;;
68284;SDS011;55114;52.052;5.238;2022-09-06T00:36:19;5.78;;;3.45;;
68284;SDS011;55114;52.052;5.238;2022-09-06T00:38:47;5.32;;;3.22;;
68284;SDS011;55114;52.052;5.238;2022-09-06T00:41:14;5.20;;;3.28;;
68284;SDS011;55114;52.052;5.238;2022-09-06T00:43:42;5.93;;;3.00;;
68284;SDS011;55114;52.052;5.238;2022-09-06T00:46:10;5.63;;;3.25;;
68284;SDS011;55114;52.052;5.238;2022-09-06T00:48:38;6.05;;;3.50;;
68284;SDS011;55114;52.052;5.238;2022-09-06T00:51:07;4.93;;;3.30;;
68284;SDS011;55114;52.052;5.238;2022-09-06T00:53:35;5.90;;;3.30;;
68284;SDS011;55114;52.052;5.238;2022-09-06T00:56:02;6.33;;;3.40;;
68284;SDS011;55114;52.052;5.238;2022-09-06T00:58:30;7.57;;;3.95;;
68284;SDS011;55114;52.052;5.238;2022-09-06T01:00:57;6.05;;;3.78;;
68284;SDS011;55114;52.052;5.238;2022-09-06T01:03:24;7.50;;;3.80;;
68284;SDS011;55114;52.052;5.238;2022-09-06T01:06:08;6.43;;;3.75;;
68284;SDS011;55114;52.052;5.238;2022-09-06T01:18:38;5.80;;;3.30;;
68284;SDS011;55114;52.052;5.238;2022-09-06T01:24:11;6.40;;;3.42;;
68284;SDS011;55114;52.052;5.238;2022-09-06T01:29:46;5.10;;;3.13;;
68284;SDS011;55114;52.052;5.238;2022-09-06T01:35:10;5.23;;;2.87;;
68284;SDS011;55114;52.052;5.238;2022-09-06T01:37:41;6.15;;;3.28;;
68284;SDS011;55114;52.052;5.238;2022-09-06T01:40:08;5.18;;;3.45;;
68284;SDS011;55114;52.052;5.238;2022-09-06T01:42:35;5.75;;;3.80;;
68284;SDS011;55114;52.052;5.238;2022-09-06T01:45:07;6.57;;;4.07;;
68284;SDS011;55114;52.052;5.238;2022-09-06T01:50:15;6.30;;;4.00;;
68284;SDS011;55114;52.052;5.238;2022-09-06T01:55:36;7.00;;;4.68;;
68284;SDS011;55114;52.052;5.238;2022-09-06T02:04:05;8.38;;;4.72;;
68284;SDS011;55114;52.052;5.238;2022-09-06T02:06:37;9.07;;;5.50;;
68284;SDS011;55114;52.052;5.238;2022-09-06T02:09:07;8.73;;;5.50;;
68284;SDS011;55114;52.052;5.238;2022-09-06T02:11:43;7.35;;;5.05;;
68284;SDS011;55114;52.052;5.238;2022-09-06T02:14:16;9.13;;;4.43;;
68284;SDS011;55114;52.052;5.238;2022-09-06T02:16:45;8.13;;;4.28;;
68284;SDS011;55114;52.052;5.238;2022-09-06T02:19:22;7.00;;;4.28;;
68284;SDS011;55114;52.052;5.238;2022-09-06T02:21:50;7.53;;;4.15;;
68284;SDS011;55114;52.052;5.238;2022-09-06T02:24:19;7.00;;;4.32;;
68284;SDS011;55114;52.052;5.238;2022-09-06T02:26:48;8.57;;;4.40;;
68284;SDS011;55114;52.052;5.238;2022-09-06T02:29:15;7.82;;;4.18;;
68284;SDS011;55114;52.052;5.238;2022-09-06T02:31:47;6.50;;;4.10;;
68284;SDS011;55114;52.052;5.238;2022-09-06T02:34:16;7.47;;;3.78;;
68284;SDS011;55114;52.052;5.238;2022-09-06T02:36:44;7.40;;;3.95;;
68284;SDS011;55114;52.052;5.238;2022-09-06T02:39:11;7.77;;;4.10;;
68284;SDS011;55114;52.052;5.238;2022-09-06T02:41:39;6.20;;;3.95;;
68284;SDS011;55114;52.052;5.238;2022-09-06T02:44:06;6.20;;;3.80;;
68284;SDS011;55114;52.052;5.238;2022-09-06T02:46:33;6.35;;;3.83;;
68284;SDS011;55114;52.052;5.238;2022-09-06T02:49:01;5.90;;;3.88;;
68284;SDS011;55114;52.052;5.238;2022-09-06T02:51:28;6.13;;;3.90;;
68284;SDS011;55114;52.052;5.238;2022-09-06T02:53:56;6.63;;;3.80;;
68284;SDS011;55114;52.052;5.238;2022-09-06T02:56:23;7.05;;;3.88;;
68284;SDS011;55114;52.052;5.238;2022-09-06T02:58:50;6.25;;;3.90;;
68284;SDS011;55114;52.052;5.238;2022-09-06T03:01:17;7.28;;;4.20;;
68284;SDS011;55114;52.052;5.238;2022-09-06T03:03:44;6.07;;;3.97;;
68284;SDS011;55114;52.052;5.238;2022-09-06T03:06:12;7.45;;;3.80;;
68284;SDS011;55114;52.052;5.238;2022-09-06T03:08:39;6.82;;;3.97;;
68284;SDS011;55114;52.052;5.238;2022-09-06T03:11:06;5.70;;;3.80;;
68284;SDS011;55114;52.052;5.238;2022-09-06T03:13:33;6.15;;;3.92;;
68284;SDS011;55114;52.052;5.238;2022-09-06T03:16:00;5.53;;;3.57;;
68284;SDS011;55114;52.052;5.238;2022-09-06T03:18:28;6.55;;;4.10;;
68284;SDS011;55114;52.052;5.238;2022-09-06T03:20:56;7.72;;;4.30;;
68284;SDS011;55114;52.052;5.238;2022-09-06T03:23:24;7.78;;;4.63;;
68284;SDS011;55114;52.052;5.238;2022-09-06T03:25:52;6.72;;;4.40;;
68284;SDS011;55114;52.052;5.238;2022-09-06T03:28:19;6.97;;;4.43;;
68284;SDS011;55114;52.052;5.238;2022-09-06T03:30:48;8.13;;;4.70;;
68284;SDS011;55114;52.052;5.238;2022-09-06T03:33:16;7.82;;;4.63;;
68284;SDS011;55114;52.052;5.238;2022-09-06T03:35:47;8.35;;;4.85;;
68284;SDS011;55114;52.052;5.238;2022-09-06T03:38:14;7.88;;;5.00;;
68284;SDS011;55114;52.052;5.238;2022-09-06T03:40:45;7.73;;;5.57;;
68284;SDS011;55114;52.052;5.238;2022-09-06T03:43:13;9.02;;;5.72;;
68284;SDS011;55114;52.052;5.238;2022-09-06T03:45:43;9.75;;;6.03;;
68284;SDS011;55114;52.052;5.238;2022-09-06T03:48:11;9.27;;;6.10;;
68284;SDS011;55114;52.052;5.238;2022-09-06T03:50:41;9.80;;;6.78;;
68284;SDS011;55114;52.052;5.238;2022-09-06T03:53:08;8.97;;;6.17;;
68284;SDS011;55114;52.052;5.238;2022-09-06T03:55:35;10.75;;;7.00;;
68284;SDS011;55114;52.052;5.238;2022-09-06T03:58:03;11.98;;;6.95;;
68284;SDS011;55114;52.052;5.238;2022-09-06T04:00:30;10.07;;;6.65;;
68284;SDS011;55114;52.052;5.238;2022-09-06T04:02:58;9.93;;;6.68;;
68284;SDS011;55114;52.052;5.238;2022-09-06T04:05:27;10.03;;;6.87;;
68284;SDS011;55114;52.052;5.238;2022-09-06T04:07:54;10.27;;;6.78;;
68284;SDS011;55114;52.052;5.238;2022-09-06T04:10:21;12.48;;;7.15;;
68284;SDS011;55114;52.052;5.238;2022-09-06T04:12:48;12.82;;;7.93;;
68284;SDS011;55114;52.052;5.238;2022-09-06T04:15:15;13.80;;;8.02;;
68284;SDS011;55114;52.052;5.238;2022-09-06T04:17:43;12.83;;;7.70;;
68284;SDS011;55114;52.052;5.238;2022-09-06T04:20:14;11.95;;;7.60;;
68284;SDS011;55114;52.052;5.238;2022-09-06T04:22:41;10.40;;;7.10;;
68284;SDS011;55114;52.052;5.238;2022-09-06T04:25:08;13.40;;;7.07;;
68284;SDS011;55114;52.052;5.238;2022-09-06T04:27:35;11.90;;;7.53;;
68284;SDS011;55114;52.052;5.238;2022-09-06T04:30:03;13.70;;;7.93;;
68284;SDS011;55114;52.052;5.238;2022-09-06T04:32:30;10.75;;;7.10;;
68284;SDS011;55114;52.052;5.238;2022-09-06T04:34:57;12.82;;;7.95;;
68284;SDS011;55114;52.052;5.238;2022-09-06T04:37:24;14.18;;;7.80;;
68284;SDS011;55114;52.052;5.238;2022-09-06T04:39:51;12.82;;;8.25;;
68284;SDS011;55114;52.052;5.238;2022-09-06T04:42:19;13.90;;;8.23;;
68284;SDS011;55114;52.052;5.238;2022-09-06T04:44:46;14.48;;;8.38;;
68284;SDS011;55114;52.052;5.238;2022-09-06T04:47:14;12.77;;;8.60;;
68284;SDS011;55114;52.052;5.238;2022-09-06T04:49:43;14.00;;;8.77;;
68284;SDS011;55114;52.052;5.238;2022-09-06T04:52:10;13.75;;;8.77;;
68284;SDS011;55114;52.052;5.238;2022-09-06T04:54:37;15.13;;;8.03;;
68284;SDS011;55114;52.052;5.238;2022-09-06T04:57:04;13.05;;;8.23;;
68284;SDS011;55114;52.052;5.238;2022-09-06T04:59:32;13.50;;;8.90;;
68284;SDS011;55114;52.052;5.238;2022-09-06T05:01:59;12.95;;;8.48;;
68284;SDS011;55114;52.052;5.238;2022-09-06T05:04:26;12.48;;;8.18;;
68284;SDS011;55114;52.052;5.238;2022-09-06T05:07:05;14.03;;;8.80;;
68284;SDS011;55114;52.052;5.238;2022-09-06T05:09:32;13.32;;;8.50;;
68284;SDS011;55114;52.052;5.238;2022-09-06T05:12:00;13.63;;;8.63;;
68284;SDS011;55114;52.052;5.238;2022-09-06T05:14:27;13.30;;;8.65;;
68284;SDS011;55114;52.052;5.238;2022-09-06T05:16:54;12.73;;;8.32;;
68284;SDS011;55114;52.052;5.238;2022-09-06T05:19:22;12.87;;;8.10;;
68284;SDS011;55114;52.052;5.238;2022-09-06T05:21:49;16.30;;;9.95;;
68284;SDS011;55114;52.052;5.238;2022-09-06T05:24:16;15.05;;;8.35;;
68284;SDS011;55114;52.052;5.238;2022-09-06T05:26:43;13.60;;;8.55;;
68284;SDS011;55114;52.052;5.238;2022-09-06T05:29:11;14.65;;;8.90;;
68284;SDS011;55114;52.052;5.238;2022-09-06T05:31:38;12.67;;;8.13;;
68284;SDS011;55114;52.052;5.238;2022-09-06T05:34:05;13.73;;;8.98;;
68284;SDS011;55114;52.052;5.238;2022-09-06T05:36:32;13.65;;;8.95;;
68284;SDS011;55114;52.052;5.238;2022-09-06T05:39:00;13.45;;;8.95;;
68284;SDS011;55114;52.052;5.238;2022-09-06T05:41:27;14.35;;;8.73;;
68284;SDS011;55114;52.052;5.238;2022-09-06T05:43:54;13.60;;;8.93;;
68284;SDS011;55114;52.052;5.238;2022-09-06T05:46:21;15.50;;;8.80;;
68284;SDS011;55114;52.052;5.238;2022-09-06T05:48:52;12.18;;;8.13;;
68284;SDS011;55114;52.052;5.238;2022-09-06T05:51:19;12.98;;;7.88;;
68284;SDS011;55114;52.052;5.238;2022-09-06T05:53:47;12.07;;;8.65;;
68284;SDS011;55114;52.052;5.238;2022-09-06T05:56:14;12.63;;;8.50;;
68284;SDS011;55114;52.052;5.238;2022-09-06T05:58:41;13.65;;;8.20;;
68284;SDS011;55114;52.052;5.238;2022-09-06T06:01:28;14.38;;;8.50;;
68284;SDS011;55114;52.052;5.238;2022-09-06T06:03:57;14.02;;;8.35;;
68284;SDS011;55114;52.052;5.238;2022-09-06T06:06:25;12.65;;;8.48;;
68284;SDS011;55114;52.052;5.238;2022-09-06T06:08:52;15.80;;;8.60;;
68284;SDS011;55114;52.052;5.238;2022-09-06T06:11:19;13.23;;;8.25;;
68284;SDS011;55114;52.052;5.238;2022-09-06T06:13:46;16.20;;;8.75;;
68284;SDS011;55114;52.052;5.238;2022-09-06T06:16:14;14.50;;;8.80;;
68284;SDS011;55114;52.052;5.238;2022-09-06T06:18:42;12.23;;;8.32;;
68284;SDS011;55114;52.052;5.238;2022-09-06T06:21:20;12.33;;;7.90;;
68284;SDS011;55114;52.052;5.238;2022-09-06T06:23:49;11.90;;;8.32;;
68284;SDS011;55114;52.052;5.238;2022-09-06T06:26:17;11.88;;;8.20;;
68284;SDS011;55114;52.052;5.238;2022-09-06T06:28:44;13.13;;;7.97;;
68284;SDS011;55114;52.052;5.238;2022-09-06T06:31:11;12.27;;;8.18;;
68284;SDS011;55114;52.052;5.238;2022-09-06T06:33:39;12.93;;;8.27;;
68284;SDS011;55114;52.052;5.238;2022-09-06T06:38:40;13.05;;;8.32;;
68284;SDS011;55114;52.052;5.238;2022-09-06T06:41:09;12.60;;;8.55;;
68284;SDS011;55114;52.052;5.238;2022-09-06T06:43:36;12.98;;;8.68;;
68284;SDS011;55114;52.052;5.238;2022-09-06T06:46:13;13.83;;;8.03;;
68284;SDS011;55114;52.052;5.238;2022-09-06T06:48:41;11.23;;;7.88;;
68284;SDS011;55114;52.052;5.238;2022-09-06T06:51:09;12.77;;;8.57;;
68284;SDS011;55114;52.052;5.238;2022-09-06T06:53:36;13.48;;;8.10;;
68284;SDS011;55114;52.052;5.238;2022-09-06T06:58:50;12.20;;;8.20;;
68284;SDS011;55114;52.052;5.238;2022-09-06T07:01:19;11.75;;;8.02;;
68284;SDS011;55114;52.052;5.238;2022-09-06T07:03:46;12.30;;;8.48;;
68284;SDS011;55114;52.052;5.238;2022-09-06T07:06:14;12.55;;;8.23;;
68284;SDS011;55114;52.052;5.238;2022-09-06T07:08:42;11.82;;;8.57;;
68284;SDS011;55114;52.052;5.238;2022-09-06T07:11:10;12.13;;;8.50;;
68284;SDS011;55114;52.052;5.238;2022-09-06T07:13:37;14.90;;;10.20;;
68284;SDS011;55114;52.052;5.238;2022-09-06T07:18:38;13.73;;;9.20;;
68284;SDS011;55114;52.052;5.238;2022-09-06T07:21:09;13.40;;;9.25;;
68284;SDS011;55114;52.052;5.238;2022-09-06T07:23:57;13.67;;;9.13;;
68284;SDS011;55114;52.052;5.238;2022-09-06T07:26:33;14.43;;;9.50;;
68284;SDS011;55114;52.052;5.238;2022-09-06T07:29:02;13.15;;;8.77;;
68284;SDS011;55114;52.052;5.238;2022-09-06T07:31:29;12.27;;;8.93;;
68284;SDS011;55114;52.052;5.238;2022-09-06T07:34:17;14.43;;;9.20;;
68284;SDS011;55114;52.052;5.238;2022-09-06T07:36:45;12.53;;;8.80;;
68284;SDS011;55114;52.052;5.238;2022-09-06T07:39:13;11.85;;;9.05;;
68284;SDS011;55114;52.052;5.238;2022-09-06T07:41:41;13.50;;;9.50;;
68284;SDS011;55114;52.052;5.238;2022-09-06T07:44:08;14.55;;;8.90;;
68284;SDS011;55114;52.052;5.238;2022-09-06T07:46:35;15.30;;;9.32;;
68284;SDS011;55114;52.052;5.238;2022-09-06T07:49:03;12.53;;;9.30;;
68284;SDS011;55114;52.052;5.238;2022-09-06T07:51:30;13.63;;;9.02;;
68284;SDS011;55114;52.052;5.238;2022-09-06T07:53:58;12.05;;;9.25;;
68284;SDS011;55114;52.052;5.238;2022-09-06T07:56:45;12.65;;;9.10;;
68284;SDS011;55114;52.052;5.238;2022-09-06T07:59:12;12.55;;;8.30;;
68284;SDS011;55114;52.052;5.238;2022-09-06T08:01:39;10.70;;;8.50;;
68284;SDS011;55114;52.052;5.238;2022-09-06T08:04:08;11.38;;;8.02;;
68284;SDS011;55114;52.052;5.238;2022-09-06T08:06:36;13.07;;;9.00;;
68284;SDS011;55114;52.052;5.238;2022-09-06T08:09:23;11.40;;;8.23;;
68284;SDS011;55114;52.052;5.238;2022-09-06T08:11:50;10.95;;;8.07;;
68284;SDS011;55114;52.052;5.238;2022-09-06T08:14:17;11.47;;;8.53;;
68284;SDS011;55114;52.052;5.238;2022-09-06T08:16:45;12.70;;;8.95;;
68284;SDS011;55114;52.052;5.238;2022-09-06T08:19:12;11.90;;;8.85;;
68284;SDS011;55114;52.052;5.238;2022-09-06T08:21:39;12.13;;;8.10;;
68284;SDS011;55114;52.052;5.238;2022-09-06T08:24:07;12.43;;;8.30;;
68284;SDS011;55114;52.052;5.238;2022-09-06T08:26:38;12.03;;;8.40;;
68284;SDS011;55114;52.052;5.238;2022-09-06T08:29:07;10.23;;;8.30;;
68284;SDS011;55114;52.052;5.238;2022-09-06T08:31:36;12.07;;;8.68;;
68284;SDS011;55114;52.052;5.238;2022-09-06T08:34:03;12.05;;;8.73;;
68284;SDS011;55114;52.052;5.238;2022-09-06T08:36:31;12.75;;;8.60;;
68284;SDS011;55114;52.052;5.238;2022-09-06T08:38:59;11.83;;;8.10;;
68284;SDS011;55114;52.052;5.238;2022-09-06T08:41:43;13.45;;;8.27;;
68284;SDS011;55114;52.052;5.238;2022-09-06T08:44:22;11.05;;;8.35;;
68284;SDS011;55114;52.052;5.238;2022-09-06T08:47:11;10.35;;;7.38;;
68284;SDS011;55114;52.052;5.238;2022-09-06T08:49:45;11.77;;;8.10;;
68284;SDS011;55114;52.052;5.238;2022-09-06T08:52:29;10.43;;;8.17;;
68284;SDS011;55114;52.052;5.238;2022-09-06T08:55:12;11.05;;;7.72;;
68284;SDS011;55114;52.052;5.238;2022-09-06T09:00:28;9.20;;;7.15;;
68284;SDS011;55114;52.052;5.238;2022-09-06T09:05:30;11.07;;;6.90;;
68284;SDS011;55114;52.052;5.238;2022-09-06T09:10:41;10.52;;;7.30;;
68284;SDS011;55114;52.052;5.238;2022-09-06T09:13:27;10.80;;;7.50;;
68284;SDS011;55114;52.052;5.238;2022-09-06T09:15:57;10.02;;;7.50;;
68284;SDS011;55114;52.052;5.238;2022-09-06T09:18:26;11.37;;;7.57;;
68284;SDS011;55114;52.052;5.238;2022-09-06T09:20:54;10.48;;;7.45;;
68284;SDS011;55114;52.052;5.238;2022-09-06T09:23:21;11.38;;;7.90;;
68284;SDS011;55114;52.052;5.238;2022-09-06T09:25:48;12.98;;;8.48;;
68284;SDS011;55114;52.052;5.238;2022-09-06T09:28:18;10.73;;;8.00;;
68284;SDS011;55114;52.052;5.238;2022-09-06T09:30:51;10.43;;;7.30;;
68284;SDS011;55114;52.052;5.238;2022-09-06T09:33:23;8.60;;;6.88;;
68284;SDS011;55114;52.052;5.238;2022-09-06T09:35:51;9.98;;;6.93;;
68284;SDS011;55114;52.052;5.238;2022-09-06T09:38:20;10.70;;;7.20;;
68284;SDS011;55114;52.052;5.238;2022-09-06T09:40:50;10.48;;;6.20;;
68284;SDS011;55114;52.052;5.238;2022-09-06T09:43:19;8.53;;;5.57;;
68284;SDS011;55114;52.052;5.238;2022-09-06T09:46:06;10.20;;;6.00;;
68284;SDS011;55114;52.052;5.238;2022-09-06T09:48:34;8.27;;;5.57;;
68284;SDS011;55114;52.052;5.238;2022-09-06T09:53:53;9.15;;;6.80;;
68284;SDS011;55114;52.052;5.238;2022-09-06T09:56:25;9.17;;;6.00;;
68284;SDS011;55114;52.052;5.238;2022-09-06T09:58:53;9.38;;;6.20;;
68284;SDS011;55114;52.052;5.238;2022-09-06T10:01:23;10.13;;;6.63;;
68284;SDS011;55114;52.052;5.238;2022-09-06T10:03:51;8.43;;;6.18;;
68284;SDS011;55114;52.052;5.238;2022-09-06T10:06:45;7.35;;;5.32;;
68284;SDS011;55114;52.052;5.238;2022-09-06T10:09:33;8.23;;;4.60;;
68284;SDS011;55114;52.052;5.238;2022-09-06T10:12:01;6.05;;;3.90;;
68284;SDS011;55114;52.052;5.238;2022-09-06T10:14:45;7.88;;;4.10;;
68284;SDS011;55114;52.052;5.238;2022-09-06T10:19:52;7.40;;;4.10;;
68284;SDS011;55114;52.052;5.238;2022-09-06T10:22:30;6.97;;;4.20;;
68284;SDS011;55114;52.052;5.238;2022-09-06T10:25:01;6.72;;;4.40;;
68284;SDS011;55114;52.052;5.238;2022-09-06T10:27:33;6.50;;;4.70;;
68284;SDS011;55114;52.052;5.238;2022-09-06T10:30:06;5.90;;;4.13;;
68284;SDS011;55114;52.052;5.238;2022-09-06T10:32:40;7.32;;;5.43;;
68284;SDS011;55114;52.052;5.238;2022-09-06T10:40:35;7.20;;;5.15;;
68284;SDS011;55114;52.052;5.238;2022-09-06T10:43:03;7.25;;;5.03;;
68284;SDS011;55114;52.052;5.238;2022-09-06T10:48:07;8.13;;;5.27;;
68284;SDS011;55114;52.052;5.238;2022-09-06T10:53:25;7.22;;;4.80;;
68284;SDS011;55114;52.052;5.238;2022-09-06T10:58:35;6.22;;;4.30;;
68284;SDS011;55114;52.052;5.238;2022-09-06T11:01:45;9.00;;;4.57;;
68284;SDS011;55114;52.052;5.238;2022-09-06T11:04:26;7.80;;;4.65;;
68284;SDS011;55114;52.052;5.238;2022-09-06T11:06:56;6.85;;;4.47;;
68284;SDS011;55114;52.052;5.238;2022-09-06T11:09:33;7.32;;;4.20;;
68284;SDS011;55114;52.052;5.238;2022-09-06T11:12:13;6.32;;;4.07;;
68284;SDS011;55114;52.052;5.238;2022-09-06T11:14:41;8.87;;;4.97;;
68284;SDS011;55114;52.052;5.238;2022-09-06T11:17:13;8.90;;;5.45;;
68284;SDS011;55114;52.052;5.238;2022-09-06T11:19:48;6.97;;;5.45;;
68284;SDS011;55114;52.052;5.238;2022-09-06T11:27:37;7.47;;;5.60;;
68284;SDS011;55114;52.052;5.238;2022-09-06T11:30:05;8.60;;;5.35;;
68284;SDS011;55114;52.052;5.238;2022-09-06T11:35:06;7.90;;;6.25;;
68284;SDS011;55114;52.052;5.238;2022-09-06T11:37:36;10.07;;;7.15;;
68284;SDS011;55114;52.052;5.238;2022-09-06T11:40:05;10.83;;;7.10;;
68284;SDS011;55114;52.052;5.238;2022-09-06T11:47:47;13.20;;;7.40;;
68284;SDS011;55114;52.052;5.238;2022-09-06T11:55:36;9.50;;;6.60;;
68284;SDS011;55114;52.052;5.238;2022-09-06T12:00:43;11.07;;;7.53;;
68284;SDS011;55114;52.052;5.238;2022-09-06T12:06:22;10.83;;;7.90;;
68284;SDS011;55114;52.052;5.238;2022-09-06T12:08:50;10.65;;;7.28;;
68284;SDS011;55114;52.052;5.238;2022-09-06T12:13:51;10.32;;;7.43;;
68284;SDS011;55114;52.052;5.238;2022-09-06T12:16:19;11.55;;;8.30;;
68284;SDS011;55114;52.052;5.238;2022-09-06T12:23:59;11.48;;;7.38;;
68284;SDS011;55114;52.052;5.238;2022-09-06T12:29:24;11.10;;;8.07;;
68284;SDS011;55114;52.052;5.238;2022-09-06T12:31:52;11.67;;;7.90;;
68284;SDS011;55114;52.052;5.238;2022-09-06T12:34:21;10.02;;;7.28;;
68284;SDS011;55114;52.052;5.238;2022-09-06T12:36:50;12.70;;;8.68;;
68284;SDS011;55114;52.052;5.238;2022-09-06T12:39:18;12.48;;;7.45;;
68284;SDS011;55114;52.052;5.238;2022-09-06T12:41:50;10.70;;;7.63;;
68284;SDS011;55114;52.052;5.238;2022-09-06T12:44:23;9.47;;;6.47;;
68284;SDS011;55114;52.052;5.238;2022-09-06T12:46:52;8.23;;;5.78;;
68284;SDS011;55114;52.052;5.238;2022-09-06T12:49:20;10.48;;;7.65;;
68284;SDS011;55114;52.052;5.238;2022-09-06T12:52:03;9.23;;;6.68;;
68284;SDS011;55114;52.052;5.238;2022-09-06T12:54:30;9.30;;;6.53;;
68284;SDS011;55114;52.052;5.238;2022-09-06T12:57:10;8.73;;;6.50;;
68284;SDS011;55114;52.052;5.238;2022-09-06T12:59:45;10.48;;;6.10;;
68284;SDS011;55114;52.052;5.238;2022-09-06T13:02:14;7.30;;;5.50;;
68284;SDS011;55114;52.052;5.238;2022-09-06T13:04:42;8.38;;;5.63;;
68284;SDS011;55114;52.052;5.238;2022-09-06T13:07:13;8.50;;;5.10;;
68284;SDS011;55114;52.052;5.238;2022-09-06T13:09:41;8.00;;;5.50;;
68284;SDS011;55114;52.052;5.238;2022-09-06T13:12:23;8.35;;;5.47;;
68284;SDS011;55114;52.052;5.238;2022-09-06T13:14:54;6.30;;;5.03;;
68284;SDS011;55114;52.052;5.238;2022-09-06T13:17:26;6.85;;;4.28;;
68284;SDS011;55114;52.052;5.238;2022-09-06T13:19:53;6.50;;;3.80;;
68284;SDS011;55114;52.052;5.238;2022-09-06T13:25:14;5.22;;;3.97;;
68284;SDS011;55114;52.052;5.238;2022-09-06T13:27:47;7.03;;;4.68;;
68284;SDS011;55114;52.052;5.238;2022-09-06T13:33:04;7.55;;;5.75;;
68284;SDS011;55114;52.052;5.238;2022-09-06T13:35:33;6.40;;;4.83;;
68284;SDS011;55114;52.052;5.238;2022-09-06T13:38:20;6.95;;;4.63;;
68284;SDS011;55114;52.052;5.238;2022-09-06T13:40:48;8.55;;;5.70;;
68284;SDS011;55114;52.052;5.238;2022-09-06T13:43:43;20.00;;;6.25;;
68284;SDS011;55114;52.052;5.238;2022-09-06T13:46:10;8.68;;;6.05;;
68284;SDS011;55114;52.052;5.238;2022-09-06T13:48:38;7.70;;;5.50;;
68284;SDS011;55114;52.052;5.238;2022-09-06T13:51:06;7.40;;;5.63;;
68284;SDS011;55114;52.052;5.238;2022-09-06T13:53:33;8.07;;;4.50;;
68284;SDS011;55114;52.052;5.238;2022-09-06T13:56:00;6.38;;;4.43;;
68284;SDS011;55114;52.052;5.238;2022-09-06T13:58:28;7.00;;;4.18;;
68284;SDS011;55114;52.052;5.238;2022-09-06T14:00:55;6.43;;;4.57;;
68284;SDS011;55114;52.052;5.238;2022-09-06T14:03:23;7.22;;;4.75;;
68284;SDS011;55114;52.052;5.238;2022-09-06T14:05:51;7.22;;;4.78;;
68284;SDS011;55114;52.052;5.238;2022-09-06T14:08:18;8.25;;;5.75;;
68284;SDS011;55114;52.052;5.238;2022-09-06T14:10:46;8.13;;;4.53;;
68284;SDS011;55114;52.052;5.238;2022-09-06T14:13:14;6.27;;;4.23;;
68284;SDS011;55114;52.052;5.238;2022-09-06T14:15:41;7.93;;;4.63;;
68284;SDS011;55114;52.052;5.238;2022-09-06T14:18:08;5.20;;;4.03;;
68284;SDS011;55114;52.052;5.238;2022-09-06T14:20:39;5.60;;;4.10;;
68284;SDS011;55114;52.052;5.238;2022-09-06T14:23:06;7.47;;;4.28;;
68284;SDS011;55114;52.052;5.238;2022-09-06T14:25:34;5.50;;;4.57;;
68284;SDS011;55114;52.052;5.238;2022-09-06T14:28:02;7.38;;;5.22;;
68284;SDS011;55114;52.052;5.238;2022-09-06T14:30:30;7.15;;;5.05;;
68284;SDS011;55114;52.052;5.238;2022-09-06T14:32:57;6.80;;;4.88;;
68284;SDS011;55114;52.052;5.238;2022-09-06T14:35:24;8.65;;;5.25;;
68284;SDS011;55114;52.052;5.238;2022-09-06T14:37:52;7.47;;;4.87;;
68284;SDS011;55114;52.052;5.238;2022-09-06T14:40:19;7.90;;;4.95;;
68284;SDS011;55114;52.052;5.238;2022-09-06T14:42:47;6.55;;;5.18;;
68284;SDS011;55114;52.052;5.238;2022-09-06T14:45:16;6.78;;;4.68;;
68284;SDS011;55114;52.052;5.238;2022-09-06T14:47:43;6.15;;;4.32;;
68284;SDS011;55114;52.052;5.238;2022-09-06T14:50:10;5.87;;;3.57;;
68284;SDS011;55114;52.052;5.238;2022-09-06T14:52:37;5.93;;;4.10;;
68284;SDS011;55114;52.052;5.238;2022-09-06T14:55:04;5.40;;;4.03;;
68284;SDS011;55114;52.052;5.238;2022-09-06T14:57:31;4.45;;;3.25;;
68284;SDS011;55114;52.052;5.238;2022-09-06T14:59:59;5.03;;;3.20;;
68284;SDS011;55114;52.052;5.238;2022-09-06T15:02:29;4.73;;;3.10;;
68284;SDS011;55114;52.052;5.238;2022-09-06T15:04:57;6.32;;;4.20;;
68284;SDS011;55114;52.052;5.238;2022-09-06T15:07:24;6.70;;;3.95;;
68284;SDS011;55114;52.052;5.238;2022-09-06T15:09:52;7.22;;;4.22;;
68284;SDS011;55114;52.052;5.238;2022-09-06T15:12:19;6.10;;;4.03;;
68284;SDS011;55114;52.052;5.238;2022-09-06T15:14:46;8.93;;;4.30;;
68284;SDS011;55114;52.052;5.238;2022-09-06T15:17:13;7.55;;;4.53;;
68284;SDS011;55114;52.052;5.238;2022-09-06T15:19:40;6.75;;;4.70;;
68284;SDS011;55114;52.052;5.238;2022-09-06T15:22:07;7.03;;;4.63;;
68284;SDS011;55114;52.052;5.238;2022-09-06T15:24:34;7.60;;;4.80;;
68284;SDS011;55114;52.052;5.238;2022-09-06T15:27:02;8.07;;;4.40;;
68284;SDS011;55114;52.052;5.238;2022-09-06T15:29:30;6.47;;;4.50;;
68284;SDS011;55114;52.052;5.238;2022-09-06T15:31:57;6.70;;;3.90;;
68284;SDS011;55114;52.052;5.238;2022-09-06T15:34:25;5.97;;;3.50;;
68284;SDS011;55114;52.052;5.238;2022-09-06T15:36:52;5.95;;;3.72;;
68284;SDS011;55114;52.052;5.238;2022-09-06T15:39:19;5.10;;;3.20;;
68284;SDS011;55114;52.052;5.238;2022-09-06T15:41:48;4.80;;;3.20;;
68284;SDS011;55114;52.052;5.238;2022-09-06T15:44:15;5.88;;;3.67;;
68284;SDS011;55114;52.052;5.238;2022-09-06T15:49:12;6.75;;;4.60;;
68284;SDS011;55114;52.052;5.238;2022-09-06T15:51:40;6.80;;;5.00;;
68284;SDS011;55114;52.052;5.238;2022-09-06T15:54:08;5.60;;;3.90;;
68284;SDS011;55114;52.052;5.238;2022-09-06T15:56:35;6.30;;;3.08;;
68284;SDS011;55114;52.052;5.238;2022-09-06T15:59:03;4.05;;;2.83;;
68284;SDS011;55114;52.052;5.238;2022-09-06T16:01:30;5.63;;;3.50;;
68284;SDS011;55114;52.052;5.238;2022-09-06T16:03:59;6.10;;;3.67;;
68284;SDS011;55114;52.052;5.238;2022-09-06T16:06:38;4.43;;;3.38;;
68284;SDS011;55114;52.052;5.238;2022-09-06T16:09:11;4.25;;;3.33;;
68284;SDS011;55114;52.052;5.238;2022-09-06T16:11:44;5.45;;;3.08;;
68284;SDS011;55114;52.052;5.238;2022-09-06T16:14:12;4.43;;;3.08;;
68284;SDS011;55114;52.052;5.238;2022-09-06T16:16:40;5.03;;;3.53;;
68284;SDS011;55114;52.052;5.238;2022-09-06T16:19:09;5.20;;;3.28;;
68284;SDS011;55114;52.052;5.238;2022-09-06T16:21:37;5.00;;;2.92;;
68284;SDS011;55114;52.052;5.238;2022-09-06T16:24:05;5.57;;;3.35;;
68284;SDS011;55114;52.052;5.238;2022-09-06T16:26:37;4.68;;;3.50;;
68284;SDS011;55114;52.052;5.238;2022-09-06T16:29:05;6.00;;;3.53;;
68284;SDS011;55114;52.052;5.238;2022-09-06T16:31:32;5.72;;;3.20;;
68284;SDS011;55114;52.052;5.238;2022-09-06T16:34:05;4.57;;;3.45;;
68284;SDS011;55114;52.052;5.238;2022-09-06T16:36:32;4.03;;;2.78;;
68284;SDS011;55114;52.052;5.238;2022-09-06T16:39:00;6.72;;;3.33;;
68284;SDS011;55114;52.052;5.238;2022-09-06T16:41:30;5.20;;;3.40;;
68284;SDS011;55114;52.052;5.238;2022-09-06T16:43:58;8.93;;;5.40;;
68284;SDS011;55114;52.052;5.238;2022-09-06T16:46:25;9.48;;;6.25;;